Airport View

Enter AWOS ICAO identifier for current METAR.

ex. KFNL

KJZI 201115Z AUTO 29005KT 10SM CLR 07/05 A3004 RMK AO2

20 Nov 2019 11:23

Frequency: 123.775

Phone: 843-559-3123

Other Area AWOS: KCHS - KLRO - KDYB - KMKS

TAF KCHS 200536Z 2006/2106 26004KT P6SM SKC FM201400 34008KT P6SM SKC